Main page
METAR-TAF:

METAR-TAF

Airports :

Victoria Regional Airport

Victoria, Texas, United States

latitude: 28-51-45N, longitude: 096-55-47W, elevation: 115 ft

Current weather observation

The report was made 1 hour and 1 minutes ago, at 18:51 UTC
Wind 8 mph from the East
Temperature 93°F
Humidity 53%
Pressure 29.91 in. Hg
Visibility: 10 miles
Scattered clouds at a height of 5000 ft

METAR: KVCT 141851Z 09007KT 10SM SCT050 34/23 A2991 RMK AO2 SLP127 T03390228

Time: 14:52 (19:52 UTC)

Forecast

The report was made 2 hours and 28 minutes ago, at 17:24 UTC
Forecast valid from 14 at 18 UTC to 15 at 18 UTC
Wind 3 mph from variable directions
Visibility: 6 miles
Few clouds at a height of 4000 ft
From 14 at 2200 UTC
Wind 9 mph from the East/Southeast
Visibility: 6 miles
Few clouds at a height of 5000 ft
From 15 at 0400 UTC
Wind 3 mph from variable directions
Visibility: 6 miles
Clear sky

TAF: KVCT 141724Z 1418/1518 VRB03KT P6SM FEW040 FM142200 11008KT P6SM FEW050 FM150400 VRB03KT P6SM SKC

Weather observations and forecasts of more than 4000 airports (METAR and TAF reports).

The available stations are represented by yellow and red dots on the map.

Hover mouse over dot to see the name of the station.

Then click to see weather observations and forecasts.

To change the map : click on the green buttons with a black cross to zoom in, on the green button with a dash to zoom out, or on the green arrows for adjacent maps.


METAR-TAF: